Time;durP1;ratioP1;P1;durP2;ratioP2;P2;SDS_P1;SDS_P2;PMS_P1;PMS_P2;Temp;Humidity;BMP_temperature;BMP_pressure;BME280_temperature;BME280_humidity;BME280_pressure;Samples;Min_cycle;Max_cycle;Signal;HPM_P1;HPM_P2
2023/06/29 00:00:31;;;;;;;1.70;1.60;;;;;;;;;;10285400;28;22596;-74
2023/06/29 00:05:32;;;;;;;1.83;1.73;;;;;;;;;;10287735;28;20286;-76
2023/06/29 00:10:33;;;;;;;2.15;2.05;;;;;;;;;;10259951;28;20225;-74
2023/06/29 00:15:34;;;;;;;1.90;1.90;;;;;;;;;;10274452;28;20259;-74
2023/06/29 00:20:35;;;;;;;2.80;1.60;;;;;;;;;;10287736;28;20552;-74
2023/06/29 00:25:38;;;;;;;1.70;1.70;;;;;;;;;;10278235;28;20217;-75
2023/06/29 00:30:39;;;;;;;2.10;2.00;;;;;;;;;;10287169;28;20754;-75
2023/06/29 00:35:40;;;;;;;1.98;1.88;;;;;;;;;;10291413;28;20259;-74
2023/06/29 00:40:41;;;;;;;1.52;1.50;;;;;;;;;;10287124;28;20213;-74
2023/06/29 00:45:42;;;;;;;1.77;1.77;;;;;;;;;;10272242;28;20231;-76
2023/06/29 00:50:43;;;;;;;2.40;2.20;;;;;;;;;;10273061;28;20209;-74
2023/06/29 00:55:45;;;;;;;2.63;2.53;;;;;;;;;;10289008;28;20670;-74
2023/06/29 01:00:46;;;;;;;2.72;2.35;;;;;;;;;;10274849;28;20213;-74
2023/06/29 01:05:47;;;;;;;2.70;2.60;;;;;;;;;;10288265;28;20229;-74
2023/06/29 01:10:50;;;;;;;2.05;1.95;;;;;;;;;;10288812;28;20209;-74
2023/06/29 01:15:52;;;;;;;2.80;2.60;;;;;;;;;;10275320;28;20363;-74
2023/06/29 01:20:54;;;;;;;2.70;2.60;;;;;;;;;;10260484;28;20225;-74
2023/06/29 01:25:55;;;;;;;2.20;2.20;;;;;;;;;;10280795;28;20217;-74
2023/06/29 01:30:56;;;;;;;2.15;2.05;;;;;;;;;;10276025;28;20225;-74
2023/06/29 01:36:07;;;;;;;2.70;2.50;;;;;;;;;;10287266;28;20222;-74
2023/06/29 01:41:11;;;;;;;2.78;2.50;;;;;;;;;;10287967;28;20236;-73
2023/06/29 01:46:12;;;;;;;2.33;2.13;;;;;;;;;;10281838;28;20224;-74
2023/06/29 01:51:14;;;;;;;1.90;1.73;;;;;;;;;;10279846;28;20248;-75
2023/06/29 01:56:15;;;;;;;2.15;1.95;;;;;;;;;;10296597;28;20705;-76
2023/06/29 02:01:16;;;;;;;2.22;2.10;;;;;;;;;;10283719;28;20963;-75
2023/06/29 02:06:17;;;;;;;1.83;1.77;;;;;;;;;;10293710;28;20237;-73
2023/06/29 02:11:19;;;;;;;1.80;1.77;;;;;;;;;;10291328;28;20220;-73
2023/06/29 02:16:21;;;;;;;4.15;1.77;;;;;;;;;;10281188;28;20217;-73
2023/06/29 02:21:22;;;;;;;4.22;2.20;;;;;;;;;;10282665;28;20213;-74
2023/06/29 02:26:25;;;;;;;1.75;1.75;;;;;;;;;;10293478;28;20231;-73
2023/06/29 02:31:26;;;;;;;2.92;2.00;;;;;;;;;;10295099;28;20832;-75
2023/06/29 02:36:27;;;;;;;2.10;1.92;;;;;;;;;;10282804;28;20238;-74
2023/06/29 02:41:28;;;;;;;3.58;2.00;;;;;;;;;;10285557;28;20224;-74
2023/06/29 02:46:29;;;;;;;2.72;2.15;;;;;;;;;;10300376;28;20241;-74
2023/06/29 02:51:31;;;;;;;2.30;2.20;;;;;;;;;;10289211;28;20213;-75
2023/06/29 02:56:38;;;;;;;1.92;1.83;;;;;;;;;;10264261;28;20825;-74
2023/06/29 03:01:39;;;;;;;2.65;2.55;;;;;;;;;;10288030;28;20217;-74
2023/06/29 03:06:40;;;;;;;2.25;2.15;;;;;;;;;;10262441;28;20224;-74
2023/06/29 03:11:41;;;;;;;2.08;2.08;;;;;;;;;;10289468;28;21110;-74
2023/06/29 03:16:42;;;;;;;2.40;2.30;;;;;;;;;;10291058;28;20225;-74
2023/06/29 03:21:43;;;;;;;2.70;2.47;;;;;;;;;;10280909;28;20299;-75
2023/06/29 03:26:44;;;;;;;2.60;2.50;;;;;;;;;;10274132;28;20304;-75
2023/06/29 03:31:45;;;;;;;2.65;2.55;;;;;;;;;;10280588;28;20217;-73
2023/06/29 03:36:46;;;;;;;2.80;2.60;;;;;;;;;;10280847;28;20225;-74
2023/06/29 03:41:47;;;;;;;3.63;3.15;;;;;;;;;;10276828;28;20228;-75
2023/06/29 03:46:48;;;;;;;3.47;3.17;;;;;;;;;;10275609;28;20224;-75
2023/06/29 03:51:49;;;;;;;7.22;3.70;;;;;;;;;;10290376;28;20770;-74
2023/06/29 03:56:50;;;;;;;3.70;2.55;;;;;;;;;;10278048;28;20217;-74
2023/06/29 04:01:51;;;;;;;3.78;3.58;;;;;;;;;;10273318;28;20212;-74
2023/06/29 04:06:52;;;;;;;3.65;3.42;;;;;;;;;;10291753;28;20291;-75
2023/06/29 04:11:53;;;;;;;6.05;3.38;;;;;;;;;;10288695;28;20224;-75
2023/06/29 04:16:54;;;;;;;3.47;2.92;;;;;;;;;;10292692;28;20231;-75
2023/06/29 04:21:55;;;;;;;3.00;2.90;;;;;;;;;;10287928;28;20220;-74
2023/06/29 04:26:56;;;;;;;4.40;2.88;;;;;;;;;;10269716;28;20591;-75
2023/06/29 04:31:58;;;;;;;2.53;2.42;;;;;;;;;;10276197;28;20220;-74
2023/06/29 04:37:01;;;;;;;5.07;2.97;;;;;;;;;;10279744;28;20930;-75
2023/06/29 04:42:04;;;;;;;4.47;2.78;;;;;;;;;;10278879;28;20222;-73
2023/06/29 04:47:06;;;;;;;2.97;2.85;;;;;;;;;;10293399;28;20645;-73
2023/06/29 04:52:10;;;;;;;3.25;3.15;;;;;;;;;;10288659;28;20232;-75
2023/06/29 04:57:14;;;;;;;4.47;3.10;;;;;;;;;;10292775;28;20279;-74
2023/06/29 05:02:15;;;;;;;5.40;2.40;;;;;;;;;;10294847;28;20209;-72
2023/06/29 05:07:17;;;;;;;2.92;2.92;;;;;;;;;;10284130;28;20236;-75
2023/06/29 05:12:18;;;;;;;3.17;2.70;;;;;;;;;;10276188;28;20220;-75
2023/06/29 05:17:19;;;;;;;3.22;2.72;;;;;;;;;;10271732;28;20232;-74
2023/06/29 05:22:20;;;;;;;2.30;2.25;;;;;;;;;;10282629;28;20263;-72
2023/06/29 05:27:21;;;;;;;2.30;2.30;;;;;;;;;;10268266;28;20221;-75
2023/06/29 05:32:22;;;;;;;3.65;2.60;;;;;;;;;;10298610;28;20699;-73
2023/06/29 05:37:23;;;;;;;4.13;3.08;;;;;;;;;;10301558;28;20224;-75
2023/06/29 05:42:24;;;;;;;2.42;2.42;;;;;;;;;;10271237;28;20604;-73
2023/06/29 05:47:25;;;;;;;3.00;2.45;;;;;;;;;;10285195;28;20307;-74
2023/06/29 05:52:26;;;;;;;2.67;2.47;;;;;;;;;;10299658;28;20312;-76
2023/06/29 05:57:27;;;;;;;2.47;2.38;;;;;;;;;;10284087;28;20228;-74
2023/06/29 06:02:28;;;;;;;1.73;1.63;;;;;;;;;;10285746;28;20213;-76
2023/06/29 06:07:30;;;;;;;1.52;1.50;;;;;;;;;;10299683;28;20640;-73
2023/06/29 06:12:31;;;;;;;1.55;1.45;;;;;;;;;;10284146;28;20228;-73
2023/06/29 06:17:32;;;;;;;4.22;1.65;;;;;;;;;;10290053;28;20221;-76
2023/06/29 06:22:33;;;;;;;2.08;1.27;;;;;;;;;;10287916;28;20213;-75
2023/06/29 06:27:34;;;;;;;1.40;1.40;;;;;;;;;;10300018;28;20874;-75
2023/06/29 06:32:38;;;;;;;1.10;1.10;;;;;;;;;;10309509;28;20216;-75
2023/06/29 06:37:39;;;;;;;2.58;0.90;;;;;;;;;;10288570;28;20224;-76
2023/06/29 06:42:40;;;;;;;0.80;0.80;;;;;;;;;;10310233;28;20212;-74
2023/06/29 06:47:41;;;;;;;4.78;0.90;;;;;;;;;;10311778;28;20761;-76
2023/06/29 06:52:42;;;;;;;1.05;0.85;;;;;;;;;;10306720;28;20213;-77
2023/06/29 06:57:43;;;;;;;0.80;0.80;;;;;;;;;;10288867;28;20220;-72
2023/06/29 07:02:44;;;;;;;1.65;1.10;;;;;;;;;;10302963;28;20220;-74
2023/06/29 07:07:46;;;;;;;0.82;0.82;;;;;;;;;;10281035;28;20271;-74
2023/06/29 07:12:47;;;;;;;1.10;0.60;;;;;;;;;;10286382;28;20320;-75
2023/06/29 07:17:48;;;;;;;1.13;0.80;;;;;;;;;;10276782;28;20235;-74
2023/06/29 07:22:49;;;;;;;0.90;0.90;;;;;;;;;;10281490;28;20247;-75
2023/06/29 07:27:50;;;;;;;0.77;0.77;;;;;;;;;;10291979;28;20243;-75
2023/06/29 07:32:52;;;;;;;0.95;0.70;;;;;;;;;;10298614;28;20675;-75
2023/06/29 07:37:53;;;;;;;1.13;0.60;;;;;;;;;;10271978;28;20232;-76
2023/06/29 07:42:54;;;;;;;4.40;0.80;;;;;;;;;;10291386;28;20243;-75
2023/06/29 07:47:55;;;;;;;3.88;0.90;;;;;;;;;;10271563;28;21260;-73
2023/06/29 07:52:57;;;;;;;1.35;1.20;;;;;;;;;;10268191;28;20852;-74
2023/06/29 07:57:58;;;;;;;1.27;0.80;;;;;;;;;;10260171;28;20231;-76
2023/06/29 08:02:59;;;;;;;1.27;0.88;;;;;;;;;;10273705;28;21116;-75
2023/06/29 08:08:00;;;;;;;0.80;0.80;;;;;;;;;;10273329;28;20874;-75
2023/06/29 08:13:01;;;;;;;0.88;0.88;;;;;;;;;;10274511;28;20231;-74
2023/06/29 08:18:02;;;;;;;1.52;0.73;;;;;;;;;;10262032;28;20373;-76
2023/06/29 08:23:03;;;;;;;0.60;0.60;;;;;;;;;;10290643;28;20867;-75
2023/06/29 08:28:04;;;;;;;1.02;0.95;;;;;;;;;;10290343;28;20217;-73
2023/06/29 08:33:05;;;;;;;0.70;0.70;;;;;;;;;;10265516;28;20259;-74
2023/06/29 08:38:06;;;;;;;0.60;0.60;;;;;;;;;;10280245;28;20335;-75
2023/06/29 08:43:09;;;;;;;2.28;0.73;;;;;;;;;;10297359;28;20588;-74
2023/06/29 08:48:12;;;;;;;1.02;0.60;;;;;;;;;;10265964;28;20736;-75
2023/06/29 08:53:13;;;;;;;0.75;0.70;;;;;;;;;;10291768;28;20622;-74
2023/06/29 08:58:14;;;;;;;0.68;0.68;;;;;;;;;;10279545;28;20224;-75
2023/06/29 09:03:16;;;;;;;0.98;0.80;;;;;;;;;;10296647;28;20232;-74
2023/06/29 09:08:19;;;;;;;1.95;0.50;;;;;;;;;;10295940;28;20229;-72
2023/06/29 09:13:20;;;;;;;2.60;0.60;;;;;;;;;;10295463;28;20231;-72
2023/06/29 09:18:24;;;;;;;0.50;0.50;;;;;;;;;;10275630;28;20223;-75
2023/06/29 09:23:26;;;;;;;0.50;0.50;;;;;;;;;;10276395;28;20874;-74
2023/06/29 09:28:27;;;;;;;0.60;0.60;;;;;;;;;;10288095;28;20228;-72
2023/06/29 09:33:28;;;;;;;1.13;0.60;;;;;;;;;;10287457;28;20690;-75
2023/06/29 09:38:31;;;;;;;3.40;0.65;;;;;;;;;;10273939;28;20298;-73
2023/06/29 09:43:33;;;;;;;2.17;0.65;;;;;;;;;;10273646;28;20220;-73
2023/06/29 09:48:34;;;;;;;0.88;0.60;;;;;;;;;;10292607;28;20221;-74
2023/06/29 09:53:35;;;;;;;0.60;0.60;;;;;;;;;;10271979;28;20220;-75
2023/06/29 09:58:36;;;;;;;2.47;0.50;;;;;;;;;;10268541;28;20217;-76
2023/06/29 10:03:37;;;;;;;0.60;0.50;;;;;;;;;;10285915;28;20294;-76
2023/06/29 10:08:42;;;;;;;2.40;0.80;;;;;;;;;;10276142;28;20249;-74
2023/06/29 10:13:46;;;;;;;0.80;0.80;;;;;;;;;;10285984;28;20251;-73
2023/06/29 10:18:49;;;;;;;0.57;0.57;;;;;;;;;;10307163;28;20210;-73
2023/06/29 10:23:51;;;;;;;2.30;0.60;;;;;;;;;;10309583;28;20317;-74
2023/06/29 10:28:52;;;;;;;0.80;0.80;;;;;;;;;;10304329;28;20212;-74
2023/06/29 10:33:53;;;;;;;1.30;0.80;;;;;;;;;;10298647;28;20224;-73
2023/06/29 10:38:55;;;;;;;0.55;0.55;;;;;;;;;;10305394;28;20760;-75
2023/06/29 10:43:58;;;;;;;1.58;1.00;;;;;;;;;;10301321;28;20221;-72
2023/06/29 10:49:01;;;;;;;1.48;0.80;;;;;;;;;;10302328;28;20225;-73
2023/06/29 10:54:03;;;;;;;1.35;0.70;;;;;;;;;;10296660;28;20216;-75
2023/06/29 10:59:08;;;;;;;1.00;1.00;;;;;;;;;;10305344;28;20220;-72
2023/06/29 11:04:10;;;;;;;0.90;0.90;;;;;;;;;;10300307;28;20201;-76
2023/06/29 11:09:14;;;;;;;0.90;0.90;;;;;;;;;;10299829;28;20708;-73
2023/06/29 11:14:15;;;;;;;0.60;0.60;;;;;;;;;;10298329;28;20783;-73
2023/06/29 11:19:16;;;;;;;1.60;1.50;;;;;;;;;;10286706;28;20225;-75
2023/06/29 11:24:21;;;;;;;5.57;2.15;;;;;;;;;;10280135;28;20222;-74
2023/06/29 11:29:22;;;;;;;1.20;1.10;;;;;;;;;;10295911;28;20252;-75
2023/06/29 11:34:23;;;;;;;1.73;1.13;;;;;;;;;;10281132;28;20255;-72
2023/06/29 11:39:24;;;;;;;1.70;1.60;;;;;;;;;;10293354;28;20205;-76
2023/06/29 11:44:26;;;;;;;2.40;2.20;;;;;;;;;;10290374;28;20209;-73
2023/06/29 11:49:27;;;;;;;2.40;2.00;;;;;;;;;;10282678;28;20221;-77
2023/06/29 11:54:30;;;;;;;1.95;1.85;;;;;;;;;;10272184;28;21835;-73
2023/06/29 11:59:32;;;;;;;1.85;1.75;;;;;;;;;;10294798;28;20209;-75
2023/06/29 12:04:33;;;;;;;8.02;1.48;;;;;;;;;;10295421;28;20229;-74
2023/06/29 12:09:35;;;;;;;3.25;1.95;;;;;;;;;;10295658;28;20224;-75
2023/06/29 12:14:36;;;;;;;2.67;1.70;;;;;;;;;;10296650;28;20287;-77
2023/06/29 12:19:38;;;;;;;1.48;1.25;;;;;;;;;;10284820;28;20225;-76
2023/06/29 12:24:39;;;;;;;1.13;1.13;;;;;;;;;;10299630;28;20217;-76
2023/06/29 12:29:40;;;;;;;1.50;1.42;;;;;;;;;;10301057;28;20307;-75
2023/06/29 12:34:41;;;;;;;1.50;1.00;;;;;;;;;;10289637;28;20227;-75
2023/06/29 12:39:42;;;;;;;1.40;1.30;;;;;;;;;;10300894;28;20222;-75
2023/06/29 12:44:43;;;;;;;1.10;1.10;;;;;;;;;;10295734;28;20301;-74
2023/06/29 12:49:45;;;;;;;0.93;0.93;;;;;;;;;;10300120;28;20303;-74
2023/06/29 12:54:46;;;;;;;1.77;1.27;;;;;;;;;;10302174;28;20217;-74
2023/06/29 12:59:47;;;;;;;1.10;1.10;;;;;;;;;;10300016;28;21012;-75
2023/06/29 13:04:48;;;;;;;1.15;1.15;;;;;;;;;;10302282;28;20228;-75
2023/06/29 13:09:51;;;;;;;1.35;1.25;;;;;;;;;;10299531;28;20295;-73
2023/06/29 13:14:52;;;;;;;2.63;1.30;;;;;;;;;;10299799;28;20919;-76
2023/06/29 13:19:53;;;;;;;1.40;1.38;;;;;;;;;;10297046;28;20274;-73
2023/06/29 13:24:54;;;;;;;2.15;1.65;;;;;;;;;;10269907;28;20212;-76
2023/06/29 13:29:55;;;;;;;2.47;2.38;;;;;;;;;;10287533;28;20787;-75
2023/06/29 13:34:56;;;;;;;2.20;2.10;;;;;;;;;;10288448;28;20224;-75
2023/06/29 13:39:57;;;;;;;2.95;2.72;;;;;;;;;;10273303;28;20205;-76
2023/06/29 13:44:58;;;;;;;6.90;2.53;;;;;;;;;;10288624;28;20216;-74
2023/06/29 13:49:59;;;;;;;2.13;2.03;;;;;;;;;;10296071;28;20577;-74
2023/06/29 13:55:00;;;;;;;3.40;3.10;;;;;;;;;;10285475;28;20737;-75
2023/06/29 14:00:01;;;;;;;3.50;3.25;;;;;;;;;;10302628;28;20782;-73
2023/06/29 14:05:05;;;;;;;3.47;3.25;;;;;;;;;;10285305;28;20252;-74
2023/06/29 14:10:06;;;;;;;4.40;4.00;;;;;;;;;;10304313;28;20224;-72
2023/06/29 14:15:07;;;;;;;3.70;3.40;;;;;;;;;;10302493;28;21116;-73
2023/06/29 14:20:08;;;;;;;4.25;3.85;;;;;;;;;;10301225;28;20213;-75
2023/06/29 14:25:10;;;;;;;2.78;2.58;;;;;;;;;;10301803;28;20722;-73
2023/06/29 14:30:11;;;;;;;3.90;3.63;;;;;;;;;;10300112;28;20216;-75
2023/06/29 14:35:12;;;;;;;3.03;2.72;;;;;;;;;;10305325;28;20216;-74
2023/06/29 14:40:13;;;;;;;4.07;3.78;;;;;;;;;;10300863;28;20216;-73
2023/06/29 14:45:14;;;;;;;4.10;3.70;;;;;;;;;;10303708;28;20220;-75
2023/06/29 14:50:15;;;;;;;3.72;2.97;;;;;;;;;;10297611;28;20220;-75
2023/06/29 14:55:16;;;;;;;3.95;3.63;;;;;;;;;;10296439;28;20719;-74
2023/06/29 15:00:19;;;;;;;4.22;3.13;;;;;;;;;;10306887;28;20196;-76
2023/06/29 15:05:20;;;;;;;3.75;3.45;;;;;;;;;;10301624;28;20207;-73
2023/06/29 15:10:21;;;;;;;3.55;3.35;;;;;;;;;;10301314;28;20220;-75
2023/06/29 15:15:22;;;;;;;4.25;3.80;;;;;;;;;;10295805;28;20793;-74
2023/06/29 15:20:23;;;;;;;3.75;3.47;;;;;;;;;;10299257;28;20283;-73
2023/06/29 15:25:24;;;;;;;3.92;3.58;;;;;;;;;;10299827;28;20217;-75
2023/06/29 15:30:25;;;;;;;4.03;3.72;;;;;;;;;;10284516;28;20277;-73
2023/06/29 15:35:26;;;;;;;5.20;4.07;;;;;;;;;;10271590;28;21265;-73
2023/06/29 15:40:27;;;;;;;5.75;4.13;;;;;;;;;;10296848;28;20245;-72
2023/06/29 15:45:28;;;;;;;4.22;3.85;;;;;;;;;;10261044;28;20240;-76
2023/06/29 15:50:29;;;;;;;4.00;3.80;;;;;;;;;;10275360;28;20220;-72
2023/06/29 15:55:30;;;;;;;4.45;4.07;;;;;;;;;;10277882;28;20773;-72
2023/06/29 16:00:31;;;;;;;4.22;3.88;;;;;;;;;;10277645;28;21035;-72
2023/06/29 16:05:34;;;;;;;5.15;4.75;;;;;;;;;;10293928;28;20618;-72
2023/06/29 16:10:35;;;;;;;7.40;4.10;;;;;;;;;;10295983;28;20710;-73
2023/06/29 16:15:36;;;;;;;4.60;4.20;;;;;;;;;;10297908;28;20236;-75
2023/06/29 16:20:37;;;;;;;4.78;4.22;;;;;;;;;;10290416;28;20215;-72
2023/06/29 16:25:38;;;;;;;4.93;4.53;;;;;;;;;;10298803;28;20216;-76
2023/06/29 16:30:39;;;;;;;4.32;4.03;;;;;;;;;;10295169;28;20268;-75
2023/06/29 16:35:41;;;;;;;4.20;3.90;;;;;;;;;;10270302;28;20302;-72
2023/06/29 16:40:44;;;;;;;4.00;3.65;;;;;;;;;;10285155;28;20224;-74
2023/06/29 16:45:46;;;;;;;5.00;4.60;;;;;;;;;;10295811;28;20919;-72
2023/06/29 16:50:46;;;;;;;5.47;4.43;;;;;;;;;;10282972;28;20220;-73
2023/06/29 16:55:48;;;;;;;4.38;4.07;;;;;;;;;;10263965;28;20241;-71
2023/06/29 17:00:48;;;;;;;4.88;4.50;;;;;;;;;;10271888;28;20221;-72
2023/06/29 17:05:49;;;;;;;5.10;4.50;;;;;;;;;;10294409;28;20225;-74
2023/06/29 17:10:52;;;;;;;5.20;4.82;;;;;;;;;;10283704;28;20690;-74
2023/06/29 17:15:53;;;;;;;5.38;4.43;;;;;;;;;;10283467;28;20225;-71
2023/06/29 17:20:54;;;;;;;5.43;4.90;;;;;;;;;;10277113;28;20291;-74
2023/06/29 17:25:55;;;;;;;5.40;4.88;;;;;;;;;;10296816;28;20213;-74
2023/06/29 17:30:57;;;;;;;7.47;5.32;;;;;;;;;;10284872;28;20212;-73
2023/06/29 17:35:58;;;;;;;7.47;6.00;;;;;;;;;;10291290;28;20225;-74
2023/06/29 17:40:59;;;;;;;5.82;5.30;;;;;;;;;;10286012;28;20223;-74
2023/06/29 17:46:00;;;;;;;7.22;5.68;;;;;;;;;;10296385;28;20220;-74
2023/06/29 17:51:11;;;;;;;6.47;5.90;;;;;;;;;;10298701;28;20243;-73
2023/06/29 17:56:12;;;;;;;6.78;6.15;;;;;;;;;;10289613;28;20225;-73
2023/06/29 18:01:14;;;;;;;6.63;6.07;;;;;;;;;;10288444;28;20376;-73
2023/06/29 18:06:15;;;;;;;9.73;6.30;;;;;;;;;;10276463;28;20233;-73
2023/06/29 18:11:16;;;;;;;8.07;6.18;;;;;;;;;;10289357;28;20221;-77
2023/06/29 18:16:17;;;;;;;9.68;6.50;;;;;;;;;;10286482;28;20225;-74
2023/06/29 18:21:18;;;;;;;7.38;6.68;;;;;;;;;;10272461;28;20794;-76
2023/06/29 18:26:19;;;;;;;9.05;6.40;;;;;;;;;;10273726;28;20224;-72
2023/06/29 18:31:20;;;;;;;6.95;6.15;;;;;;;;;;10271049;28;20216;-73
2023/06/29 18:36:21;;;;;;;9.57;6.65;;;;;;;;;;10283532;28;20237;-73
2023/06/29 18:41:36;;;;;;;12.20;7.10;;;;;;;;;;10289078;28;20737;-72
2023/06/29 18:46:38;;;;;;;9.90;6.95;;;;;;;;;;10288505;28;20228;-72
2023/06/29 18:51:41;;;;;;;8.30;6.75;;;;;;;;;;10293487;28;21088;-72
2023/06/29 18:56:42;;;;;;;7.25;5.65;;;;;;;;;;10295325;28;20248;-74
2023/06/29 19:01:43;;;;;;;7.60;6.63;;;;;;;;;;10299712;28;20643;-73
2023/06/29 19:06:44;;;;;;;9.20;6.85;;;;;;;;;;10298540;28;20328;-73
2023/06/29 19:11:45;;;;;;;8.15;6.35;;;;;;;;;;10286511;28;20216;-75
2023/06/29 19:16:47;;;;;;;7.20;6.47;;;;;;;;;;10295807;28;20642;-74
2023/06/29 19:21:48;;;;;;;9.90;6.90;;;;;;;;;;10292363;28;20594;-74
2023/06/29 19:26:49;;;;;;;7.38;6.68;;;;;;;;;;10277696;28;20303;-74
2023/06/29 19:31:50;;;;;;;10.23;6.88;;;;;;;;;;10296196;28;20869;-74
2023/06/29 19:36:51;;;;;;;9.35;6.82;;;;;;;;;;10281644;28;20230;-74
2023/06/29 19:41:52;;;;;;;9.80;8.10;;;;;;;;;;10274566;28;20225;-74
2023/06/29 19:46:53;;;;;;;8.52;6.80;;;;;;;;;;10286062;28;20229;-74
2023/06/29 19:51:57;;;;;;;7.95;6.93;;;;;;;;;;10300595;28;20287;-75
2023/06/29 19:56:58;;;;;;;7.97;6.97;;;;;;;;;;10285781;28;20352;-74
2023/06/29 20:01:59;;;;;;;9.02;7.45;;;;;;;;;;10294230;28;20303;-73
2023/06/29 20:07:00;;;;;;;7.53;6.78;;;;;;;;;;10308262;28;20291;-73
2023/06/29 20:12:01;;;;;;;14.57;6.93;;;;;;;;;;10292250;28;20244;-75
2023/06/29 20:17:02;;;;;;;9.20;7.47;;;;;;;;;;10273301;28;20319;-75
2023/06/29 20:22:03;;;;;;;10.70;7.65;;;;;;;;;;10292055;28;20215;-75
2023/06/29 20:27:06;;;;;;;7.05;6.20;;;;;;;;;;10304405;28;20212;-74
2023/06/29 20:32:07;;;;;;;12.45;7.10;;;;;;;;;;10295232;28;20229;-72
2023/06/29 20:37:08;;;;;;;6.65;6.03;;;;;;;;;;10311851;28;20217;-72
2023/06/29 20:42:09;;;;;;;7.68;5.60;;;;;;;;;;10307954;28;20627;-72
2023/06/29 20:47:11;;;;;;;7.50;5.78;;;;;;;;;;10288175;28;20225;-72
2023/06/29 20:52:12;;;;;;;7.10;6.40;;;;;;;;;;10304880;28;20279;-73
2023/06/29 20:57:21;;;;;;;6.88;6.20;;;;;;;;;;10302119;28;20279;-73
2023/06/29 21:02:22;;;;;;;11.60;5.53;;;;;;;;;;10301514;28;20212;-75
2023/06/29 21:07:23;;;;;;;5.72;5.18;;;;;;;;;;10293289;28;20229;-72
2023/06/29 21:12:24;;;;;;;5.28;4.80;;;;;;;;;;10304386;28;20208;-76
2023/06/29 21:17:25;;;;;;;7.68;6.47;;;;;;;;;;10298873;28;20225;-74
2023/06/29 21:22:26;;;;;;;6.28;5.63;;;;;;;;;;10282909;28;20796;-74
2023/06/29 21:27:27;;;;;;;6.50;5.72;;;;;;;;;;10298765;28;20216;-73
2023/06/29 21:32:28;;;;;;;11.70;6.75;;;;;;;;;;10285889;28;20209;-73
2023/06/29 21:37:30;;;;;;;9.93;6.72;;;;;;;;;;10283018;28;20220;-74
2023/06/29 21:42:31;;;;;;;12.85;7.68;;;;;;;;;;10303871;28;20205;-75
2023/06/29 21:47:32;;;;;;;8.10;6.72;;;;;;;;;;10289665;28;20313;-74
2023/06/29 21:52:33;;;;;;;12.63;8.13;;;;;;;;;;10300413;28;20727;-74
2023/06/29 21:57:34;;;;;;;12.20;7.50;;;;;;;;;;10297922;28;20220;-75
2023/06/29 22:02:35;;;;;;;10.48;6.88;;;;;;;;;;10300899;28;20221;-75
2023/06/29 22:07:37;;;;;;;10.57;7.43;;;;;;;;;;10294755;28;20271;-73
2023/06/29 22:12:42;;;;;;;7.80;7.03;;;;;;;;;;10296017;28;20239;-75
2023/06/29 22:17:43;;;;;;;9.02;6.05;;;;;;;;;;10310719;28;20220;-74
2023/06/29 22:22:44;;;;;;;7.80;6.35;;;;;;;;;;10309469;28;21678;-73
2023/06/29 22:27:46;;;;;;;12.02;6.45;;;;;;;;;;10313463;28;20736;-73
2023/06/29 22:32:48;;;;;;;13.73;6.53;;;;;;;;;;10296524;28;21009;-76
2023/06/29 22:37:49;;;;;;;8.98;6.32;;;;;;;;;;10294894;28;20227;-74
2023/06/29 22:42:49;;;;;;;7.70;6.90;;;;;;;;;;10293842;28;20737;-73
2023/06/29 22:47:50;;;;;;;9.80;7.05;;;;;;;;;;10309785;28;20779;-72
2023/06/29 22:52:51;;;;;;;8.98;6.28;;;;;;;;;;10312246;28;20209;-75
2023/06/29 22:57:52;;;;;;;12.00;6.95;;;;;;;;;;10286866;28;21192;-73
2023/06/29 23:02:53;;;;;;;10.93;7.72;;;;;;;;;;10301852;28;20213;-74
2023/06/29 23:07:54;;;;;;;8.30;6.65;;;;;;;;;;10294308;28;20598;-72
2023/06/29 23:12:56;;;;;;;9.15;6.88;;;;;;;;;;10294863;28;20215;-73
2023/06/29 23:17:57;;;;;;;11.48;7.10;;;;;;;;;;10310404;28;20308;-74
2023/06/29 23:22:58;;;;;;;12.60;7.68;;;;;;;;;;10304738;28;20217;-75
2023/06/29 23:28:00;;;;;;;15.07;7.20;;;;;;;;;;10293605;28;20790;-72
2023/06/29 23:33:01;;;;;;;13.57;8.07;;;;;;;;;;10297719;28;20677;-73
2023/06/29 23:38:18;;;;;;;13.70;7.80;;;;;;;;;;10293173;28;20225;-74
2023/06/29 23:43:19;;;;;;;13.00;7.10;;;;;;;;;;10308044;28;20221;-75
2023/06/29 23:48:20;;;;;;;9.75;7.35;;;;;;;;;;10288202;28;20217;-75
2023/06/29 23:53:21;;;;;;;17.23;7.43;;;;;;;;;;10309610;28;20284;-74
2023/06/29 23:58:22;;;;;;;10.05;6.90;;;;;;;;;;10307032;28;20233;-74
